Time;durP1;ratioP1;P1;durP2;ratioP2;P2;SDS_P1;SDS_P2;PMS_P1;PMS_P2;Temp;Humidity;BMP_temperature;BMP_pressure;BME280_temperature;BME280_humidity;BME280_pressure;Samples;Min_cycle;Max_cycle;Signal;HPM_P1;HPM_P2
2021/07/03 00:00:53;;;;;;;10.10;7.65;;;;;;;14.51;85.42;101370.31;5020243;28;20056;-74
2021/07/03 00:03:19;;;;;;;9.80;7.40;;;;;;;14.70;85.18;101377.81;5020024;28;20326;-73
2021/07/03 00:05:44;;;;;;;12.63;7.50;;;;;;;14.75;85.95;101380.34;5036623;28;20384;-73
2021/07/03 00:08:09;;;;;;;9.85;7.25;;;;;;;14.82;85.49;101379.28;5036830;28;20022;-74
2021/07/03 00:10:35;;;;;;;10.90;7.75;;;;;;;14.86;85.46;101373.06;5019868;28;20033;-73
2021/07/03 00:13:00;;;;;;;10.27;6.93;;;;;;;14.90;83.87;101377.34;5019610;28;20335;-73
2021/07/03 00:15:26;;;;;;;8.32;7.47;;;;;;;14.72;84.96;101369.91;5003919;28;20080;-73
2021/07/03 00:17:52;;;;;;;11.60;7.82;;;;;;;14.50;85.16;101367.72;5019886;28;20374;-73
2021/07/03 00:20:18;;;;;;;8.52;7.55;;;;;;;14.65;85.89;101372.66;5020039;28;20061;-73
2021/07/03 00:22:43;;;;;;;7.90;7.10;;;;;;;14.61;86.02;101370.09;5019247;28;20436;-73
2021/07/03 00:25:09;;;;;;;13.70;7.97;;;;;;;14.34;86.05;101369.78;5019961;28;20026;-73
2021/07/03 00:27:35;;;;;;;13.68;7.18;;;;;;;14.52;85.61;101371.19;5019830;28;20112;-73
2021/07/03 00:30:00;;;;;;;12.15;7.45;;;;;;;14.50;86.25;101370.34;5019889;28;20025;-73
2021/07/03 00:32:25;;;;;;;9.13;7.25;;;;;;;14.52;86.56;101373.81;5019346;28;20025;-74
2021/07/03 00:34:51;;;;;;;15.07;7.97;;;;;;;14.41;85.81;101366.16;5019649;28;20055;-74
2021/07/03 00:37:16;;;;;;;7.88;6.78;;;;;;;14.45;86.22;101374.81;5019705;28;20022;-73
2021/07/03 00:39:42;;;;;;;14.25;8.30;;;;;;;14.27;86.72;101371.69;5019615;28;20032;-73
2021/07/03 00:42:07;;;;;;;11.60;9.10;;;;;;;14.32;87.35;101375.09;5019174;28;20026;-73
2021/07/03 00:44:34;;;;;;;11.15;9.00;;;;;;;14.28;86.44;101377.81;5036084;28;20036;-73
2021/07/03 00:47:00;;;;;;;10.07;8.98;;;;;;;14.13;86.90;101371.13;5035993;28;20017;-72
2021/07/03 00:49:26;;;;;;;12.98;9.13;;;;;;;14.11;87.50;101359.75;5036052;28;20017;-72
2021/07/03 00:51:52;;;;;;;20.42;9.73;;;;;;;14.28;87.13;101368.16;5018961;28;20032;-73
2021/07/03 00:54:20;;;;;;;12.13;8.63;;;;;;;14.37;86.55;101362.72;5019698;28;20060;-73
2021/07/03 00:56:45;;;;;;;14.15;8.68;;;;;;;14.42;86.57;101365.25;5020015;28;20036;-72
2021/07/03 00:59:10;;;;;;;12.95;9.00;;;;;;;14.17;87.15;101375.41;5019577;28;20025;-73
2021/07/03 01:01:36;;;;;;;12.23;8.95;;;;;;;14.03;88.06;101373.94;5018862;28;20027;-73
2021/07/03 01:04:01;;;;;;;13.43;8.98;;;;;;;14.11;87.81;101375.53;5035814;28;20473;-72
2021/07/03 01:06:27;;;;;;;11.63;8.52;;;;;;;14.08;86.91;101372.97;5018984;28;20021;-72
2021/07/03 01:08:52;;;;;;;12.77;7.25;;;;;;;14.27;86.91;101371.69;5018975;28;20021;-73
2021/07/03 01:11:27;;;;;;;11.32;7.80;;;;;;;14.22;87.14;101377.94;5018518;28;20021;-74
2021/07/03 01:13:53;;;;;;;10.93;7.68;;;;;;;14.07;87.12;101374.75;5035532;28;20105;-74
2021/07/03 01:16:19;;;;;;;12.27;8.70;;;;;;;14.19;87.01;101377.13;5019032;28;20112;-74
2021/07/03 01:18:44;;;;;;;13.50;8.13;;;;;;;14.11;88.15;101380.78;5018743;28;20330;-74
2021/07/03 01:21:10;;;;;;;11.23;8.27;;;;;;;14.20;87.73;101383.22;5035069;28;20053;-74
2021/07/03 01:23:36;;;;;;;9.35;8.07;;;;;;;14.22;87.15;101384.06;5035721;28;20079;-74
2021/07/03 01:26:01;;;;;;;10.57;7.80;;;;;;;14.17;86.80;101378.91;5018797;28;20021;-73
2021/07/03 01:28:27;;;;;;;10.35;8.00;;;;;;;14.18;87.10;101379.78;5018640;28;20022;-73
2021/07/03 01:30:52;;;;;;;12.73;8.52;;;;;;;14.22;88.21;101380.56;5036153;28;20033;-73
2021/07/03 01:33:18;;;;;;;8.68;7.80;;;;;;;14.17;87.61;101384.16;5034873;28;20071;-73
2021/07/03 01:35:44;;;;;;;10.90;8.60;;;;;;;14.15;87.55;101377.19;5018674;28;20029;-72
2021/07/03 01:38:09;;;;;;;11.50;7.82;;;;;;;14.14;87.70;101383.38;5034932;28;20029;-73
2021/07/03 01:40:34;;;;;;;9.10;8.20;;;;;;;14.10;87.73;101379.06;5018122;28;20331;-73
2021/07/03 01:43:02;;;;;;;11.27;9.13;;;;;;;13.88;87.85;101374.22;5018254;28;20021;-73
2021/07/03 01:45:27;;;;;;;9.30;7.78;;;;;;;13.83;88.34;101376.06;5018644;28;20053;-73
2021/07/03 01:47:53;;;;;;;13.93;8.80;;;;;;;13.77;88.29;101376.19;5018436;28;20026;-73
2021/07/03 01:50:18;;;;;;;13.02;9.10;;;;;;;13.77;88.58;101373.56;5018287;28;20104;-74
2021/07/03 01:52:43;;;;;;;12.75;9.10;;;;;;;13.79;88.66;101366.53;5017708;28;20552;-73
2021/07/03 01:55:09;;;;;;;12.52;8.23;;;;;;;13.92;88.35;101365.41;5018201;28;20044;-74
2021/07/03 01:57:36;;;;;;;9.27;8.20;;;;;;;13.84;88.24;101364.69;5034646;28;20550;-73
2021/07/03 02:00:08;;;;;;;10.50;8.55;;;;;;;13.60;88.75;101366.00;5034471;28;20021;-73
2021/07/03 02:02:34;;;;;;;12.20;9.23;;;;;;;13.79;88.99;101358.66;5034554;28;20036;-73
2021/07/03 02:04:59;;;;;;;9.23;8.45;;;;;;;13.90;88.06;101361.06;5035384;28;20021;-73
2021/07/03 02:07:27;;;;;;;10.30;8.18;;;;;;;13.76;87.66;101363.97;5034694;28;20435;-73
2021/07/03 02:09:52;;;;;;;14.07;8.93;;;;;;;13.62;89.02;101361.56;5018348;28;20079;-73
2021/07/03 02:12:18;;;;;;;10.35;8.55;;;;;;;13.75;88.70;101356.97;5017444;28;20026;-73
2021/07/03 02:14:43;;;;;;;11.65;8.25;;;;;;;13.57;89.08;101359.03;5018014;28;20609;-73
2021/07/03 02:17:08;;;;;;;15.05;9.73;;;;;;;13.44;88.97;101357.53;5017561;28;20446;-73
2021/07/03 02:19:33;;;;;;;11.32;8.82;;;;;;;13.52;89.57;101360.88;5017340;28;20400;-73
2021/07/03 02:21:59;;;;;;;9.02;8.10;;;;;;;13.66;88.64;101358.00;5017237;28;20033;-73
2021/07/03 02:24:24;;;;;;;9.05;8.32;;;;;;;13.62;88.36;101359.84;5018051;28;20422;-73
2021/07/03 02:26:49;;;;;;;11.13;8.70;;;;;;;13.38;88.72;101349.78;5017729;28;20022;-72
2021/07/03 02:29:15;;;;;;;9.48;8.55;;;;;;;13.43;89.07;101350.53;5001721;28;20047;-73
2021/07/03 02:31:40;;;;;;;13.45;8.75;;;;;;;13.35;89.53;101348.03;5017435;28;20112;-73
2021/07/03 02:34:05;;;;;;;9.45;8.50;;;;;;;13.49;89.11;101345.19;5034026;28;20358;-73
2021/07/03 02:36:31;;;;;;;9.50;8.43;;;;;;;13.50;89.40;101355.66;5017527;28;20334;-74
2021/07/03 02:38:56;;;;;;;10.85;8.48;;;;;;;13.57;89.15;101348.53;5017641;28;20031;-73
2021/07/03 02:41:22;;;;;;;9.35;8.50;;;;;;;13.44;89.03;101349.66;5017180;28;20025;-73
2021/07/03 02:43:47;;;;;;;9.05;8.25;;;;;;;13.39;88.41;101343.63;5017505;28;20021;-72
2021/07/03 02:46:13;;;;;;;10.25;9.32;;;;;;;13.29;89.07;101349.00;5017314;28;20025;-75
2021/07/03 02:48:38;;;;;;;10.25;8.00;;;;;;;13.39;88.85;101346.25;5017291;28;20323;-75
2021/07/03 02:51:04;;;;;;;13.98;9.27;;;;;;;13.27;89.39;101356.03;5000078;28;20067;-74
2021/07/03 02:53:29;;;;;;;10.70;9.25;;;;;;;13.31;89.16;101348.97;5001038;28;20484;-73
2021/07/03 02:55:54;;;;;;;10.05;8.52;;;;;;;13.25;89.14;101360.44;5017138;28;20037;-72
2021/07/03 02:58:20;;;;;;;9.07;8.15;;;;;;;13.22;89.52;101363.09;5016908;28;20028;-72
2021/07/03 03:00:45;;;;;;;10.48;8.90;;;;;;;13.24;89.18;101361.34;5017151;28;20044;-72
2021/07/03 03:03:10;;;;;;;10.73;9.25;;;;;;;13.02;89.76;101353.81;5016420;28;20031;-72
2021/07/03 03:05:36;;;;;;;15.07;9.68;;;;;;;13.08;90.17;101354.63;5017195;28;20041;-72
2021/07/03 03:08:01;;;;;;;10.60;9.52;;;;;;;13.10;89.99;101352.81;5016778;28;20029;-72
2021/07/03 03:10:26;;;;;;;12.52;9.77;;;;;;;13.16;89.77;101357.97;5016875;28;20025;-72
2021/07/03 03:12:52;;;;;;;13.90;10.38;;;;;;;13.16;89.29;101352.72;5016356;28;20391;-72
2021/07/03 03:15:17;;;;;;;10.82;9.73;;;;;;;13.21;89.60;101355.25;5033476;28;20029;-72
2021/07/03 03:17:43;;;;;;;15.15;9.27;;;;;;;13.28;88.96;101354.25;5016669;28;20331;-72
2021/07/03 03:20:11;;;;;;;13.82;8.93;;;;;;;13.25;89.46;101352.59;5034128;28;20021;-72
2021/07/03 03:22:36;;;;;;;11.02;8.48;;;;;;;13.35;89.22;101358.53;5016189;28;20048;-72
2021/07/03 03:25:04;;;;;;;9.93;8.93;;;;;;;13.22;89.32;101357.84;5000424;28;20415;-72
2021/07/03 03:27:29;;;;;;;11.90;9.90;;;;;;;13.12;89.37;101353.66;5033108;28;20017;-72
2021/07/03 03:29:54;;;;;;;11.90;9.57;;;;;;;13.13;89.73;101352.75;5016657;28;20071;-73
2021/07/03 03:32:19;;;;;;;10.07;9.23;;;;;;;13.07;89.62;101358.13;5016085;28;20335;-73
2021/07/03 03:34:45;;;;;;;10.45;9.35;;;;;;;13.06;89.96;101349.41;5016625;28;20442;-72
2021/07/03 03:37:10;;;;;;;15.20;10.48;;;;;;;12.91;90.23;101354.84;5016668;28;20335;-72
2021/07/03 03:39:36;;;;;;;12.80;9.95;;;;;;;13.04;90.80;101353.78;5016686;28;20434;-73
2021/07/03 03:42:01;;;;;;;12.23;10.02;;;;;;;13.11;89.95;101354.56;5017597;28;20022;-73
2021/07/03 03:44:26;;;;;;;12.13;10.52;;;;;;;13.10;89.44;101358.06;5016826;28;20022;-73
2021/07/03 03:46:52;;;;;;;12.55;9.90;;;;;;;12.93;89.70;101356.56;5000238;28;20424;-73
2021/07/03 03:49:19;;;;;;;10.63;9.57;;;;;;;13.04;90.05;101355.56;5016116;28;20363;-73
2021/07/03 03:51:45;;;;;;;12.38;11.07;;;;;;;13.13;91.14;101363.25;5016105;28;20021;-72
2021/07/03 03:54:10;;;;;;;13.93;10.65;;;;;;;13.22;90.20;101363.09;5033898;28;20029;-73
2021/07/03 03:56:36;;;;;;;12.18;10.93;;;;;;;13.29;90.28;101370.00;5016756;28;20490;-73
2021/07/03 03:59:01;;;;;;;11.48;9.32;;;;;;;13.47;88.97;101381.09;5016380;28;20033;-73
2021/07/03 04:01:26;;;;;;;11.38;9.88;;;;;;;13.38;89.52;101374.25;5016729;28;20495;-72
2021/07/03 04:03:52;;;;;;;11.43;10.32;;;;;;;13.42;89.36;101373.31;5032556;28;20081;-73
2021/07/03 04:06:17;;;;;;;11.80;9.88;;;;;;;13.38;89.65;101374.25;5016286;28;20032;-72
2021/07/03 04:08:42;;;;;;;11.63;9.60;;;;;;;13.41;89.03;101368.09;5016352;28;20021;-72
2021/07/03 04:11:08;;;;;;;10.48;9.32;;;;;;;13.57;89.01;101374.78;5015964;28;20025;-72
2021/07/03 04:13:33;;;;;;;11.07;9.45;;;;;;;13.69;88.59;101374.56;5016340;28;20034;-74
2021/07/03 04:15:58;;;;;;;11.13;9.80;;;;;;;13.68;89.13;101371.97;5033732;28;20032;-72
2021/07/03 04:18:24;;;;;;;15.10;10.38;;;;;;;13.58;88.08;101371.28;5016094;28;20355;-72
2021/07/03 04:20:49;;;;;;;11.40;9.88;;;;;;;13.68;88.83;101378.09;5032423;28;20171;-72
2021/07/03 04:23:14;;;;;;;10.98;9.88;;;;;;;13.58;88.41;101376.53;5015725;28;20040;-72
2021/07/03 04:25:40;;;;;;;13.68;10.88;;;;;;;13.52;89.38;101377.50;5015924;28;20029;-72
2021/07/03 04:28:05;;;;;;;11.30;10.02;;;;;;;13.72;88.23;101372.78;5016078;28;20021;-72
2021/07/03 04:30:30;;;;;;;8.75;7.95;;;;;;;13.85;87.90;101374.28;5016172;28;20144;-73
2021/07/03 04:32:57;;;;;;;9.02;8.13;;;;;;;14.07;87.34;101363.34;5015472;28;20427;-72
2021/07/03 04:35:22;;;;;;;10.15;8.60;;;;;;;14.03;87.26;101367.81;5015978;28;20026;-72
2021/07/03 04:37:48;;;;;;;9.00;8.10;;;;;;;14.07;87.36;101366.88;4999763;28;20523;-73
2021/07/03 04:40:13;;;;;;;8.77;7.90;;;;;;;14.19;87.67;101369.25;5033496;28;20064;-73
2021/07/03 04:42:38;;;;;;;10.30;8.02;;;;;;;14.32;86.52;101369.84;5018558;28;20025;-72
2021/07/03 04:45:05;;;;;;;8.02;7.22;;;;;;;14.18;86.90;101371.91;5019613;28;20025;-72
2021/07/03 04:47:30;;;;;;;8.20;7.50;;;;;;;14.34;86.53;101375.06;5019442;28;20060;-72
2021/07/03 04:49:55;;;;;;;15.10;7.28;;;;;;;14.50;86.39;101375.59;5019387;28;20419;-72
2021/07/03 04:52:22;;;;;;;7.72;7.07;;;;;;;14.53;85.97;101373.78;5018759;28;20447;-73
2021/07/03 04:54:47;;;;;;;7.43;6.75;;;;;;;14.55;85.29;101371.13;5019505;28;20053;-73
2021/07/03 04:57:12;;;;;;;8.35;7.47;;;;;;;14.66;85.96;101379.66;5019226;28;20052;-73
2021/07/03 04:59:41;;;;;;;7.80;6.82;;;;;;;14.55;85.68;101373.75;5019446;28;20025;-73
2021/07/03 05:02:08;;;;;;;7.70;7.10;;;;;;;14.61;86.07;101370.97;5018956;28;20028;-73
2021/07/03 05:04:33;;;;;;;9.63;7.20;;;;;;;14.53;86.07;101370.25;5019246;28;20026;-73
2021/07/03 05:06:59;;;;;;;8.00;6.40;;;;;;;14.64;86.23;101373.56;5019131;28;20075;-73
2021/07/03 05:09:24;;;;;;;7.53;6.82;;;;;;;14.62;86.77;101379.72;5019082;28;20442;-73
2021/07/03 05:11:49;;;;;;;6.93;6.30;;;;;;;14.80;85.51;101376.69;5018550;28;20040;-73
2021/07/03 05:14:15;;;;;;;6.97;6.38;;;;;;;14.70;86.19;101378.69;5019146;28;20105;-73
2021/07/03 05:16:40;;;;;;;8.23;6.53;;;;;;;14.70;86.26;101375.19;5018675;28;20327;-73
2021/07/03 05:19:05;;;;;;;6.97;6.40;;;;;;;14.76;85.58;101376.81;5019022;28;20541;-73
2021/07/03 05:21:31;;;;;;;7.78;6.88;;;;;;;14.73;86.22;101374.28;5018086;28;20131;-73
2021/07/03 05:23:56;;;;;;;9.75;6.57;;;;;;;14.83;85.00;101374.03;5018923;28;20029;-73
2021/07/03 05:26:21;;;;;;;7.43;6.07;;;;;;;15.10;84.26;101373.41;5035211;28;20032;-73
2021/07/03 05:28:47;;;;;;;6.45;5.85;;;;;;;15.27;84.20;101375.59;5018767;28;20022;-73
2021/07/03 05:31:12;;;;;;;6.65;5.32;;;;;;;15.78;82.03;101376.94;5018255;28;20331;-73
2021/07/03 05:33:37;;;;;;;5.03;4.55;;;;;;;15.99;80.86;101365.84;5018515;28;20064;-73
2021/07/03 05:36:03;;;;;;;5.78;5.10;;;;;;;15.88;81.03;101371.41;5018557;28;20032;-73
2021/07/03 05:38:29;;;;;;;7.15;4.35;;;;;;;16.47;79.58;101369.72;5018245;28;20048;-72
2021/07/03 05:41:00;;;;;;;4.93;4.50;;;;;;;16.59;78.28;101365.81;5018642;28;20021;-74
2021/07/03 05:43:26;;;;;;;8.65;4.20;;;;;;;17.15;75.45;101375.53;5018590;28;20044;-73
2021/07/03 05:45:51;;;;;;;4.40;4.05;;;;;;;16.49;78.82;101370.53;5002103;28;20324;-74
2021/07/03 05:48:17;;;;;;;7.10;4.40;;;;;;;16.29;79.66;101373.78;5018231;28;20028;-74
2021/07/03 05:50:42;;;;;;;6.00;4.20;;;;;;;16.34;78.67;101385.03;5018455;28;20120;-73
2021/07/03 05:53:08;;;;;;;7.00;5.15;;;;;;;16.46;78.89;101382.97;5016485;28;20025;-73
2021/07/03 05:55:33;;;;;;;4.75;4.32;;;;;;;16.61;77.51;101379.00;5018500;28;20040;-73
2021/07/03 05:57:58;;;;;;;5.53;4.82;;;;;;;16.38;78.50;101378.75;5018168;28;20029;-73
2021/07/03 06:00:24;;;;;;;6.38;5.85;;;;;;;16.39;77.25;101374.34;5017999;28;20036;-73
2021/07/03 06:02:49;;;;;;;6.35;5.68;;;;;;;16.70;76.53;101373.41;5017675;28;20508;-73
2021/07/03 06:05:15;;;;;;;5.30;4.80;;;;;;;17.35;74.97;101366.09;5014381;28;20029;-73
2021/07/03 06:07:41;;;;;;;5.13;4.72;;;;;;;17.75;72.40;101375.25;5028924;28;20097;-73
2021/07/03 06:10:06;;;;;;;6.03;3.83;;;;;;;19.39;66.80;101363.72;5023656;28;20343;-73
2021/07/03 06:12:32;;;;;;;4.30;3.90;;;;;;;17.83;72.35;101367.06;4981506;28;20029;-73
2021/07/03 06:14:57;;;;;;;4.53;3.88;;;;;;;17.90;72.54;101368.56;5029469;28;20068;-73
2021/07/03 06:17:23;;;;;;;4.28;3.97;;;;;;;17.61;73.15;101362.53;5017860;28;20038;-73
2021/07/03 06:19:48;;;;;;;4.13;3.83;;;;;;;17.46;73.01;101366.56;5017818;28;20024;-73
2021/07/03 06:22:14;;;;;;;4.90;4.30;;;;;;;16.67;76.12;101360.31;5017509;28;20490;-74
2021/07/03 06:24:45;;;;;;;4.38;3.97;;;;;;;17.19;75.24;101363.09;5018017;28;20054;-74
2021/07/03 06:27:10;;;;;;;3.80;3.45;;;;;;;17.42;73.72;101366.75;5001555;28;20033;-74
2021/07/03 06:29:36;;;;;;;4.25;3.58;;;;;;;17.30;73.93;101358.34;5017661;28;20033;-75
2021/07/03 06:32:03;;;;;;;4.32;3.88;;;;;;;17.04;74.29;101356.53;5017058;28;20029;-75
2021/07/03 06:34:28;;;;;;;4.28;3.97;;;;;;;16.78;76.06;101360.00;5017477;28;20026;-75
2021/07/03 06:36:53;;;;;;;7.03;4.18;;;;;;;16.46;77.80;101353.94;5017534;28;20048;-75
2021/07/03 06:39:19;;;;;;;6.63;5.50;;;;;;;16.53;76.84;101358.13;5017265;28;20461;-75
2021/07/03 06:41:45;;;;;;;4.70;4.40;;;;;;;16.77;76.48;101358.25;5017126;28;20029;-75
2021/07/03 06:44:10;;;;;;;6.70;4.38;;;;;;;17.35;75.18;101358.16;5017541;28;20055;-74
2021/07/03 06:46:35;;;;;;;6.25;3.53;;;;;;;18.91;69.90;101360.38;5016937;28;20025;-75
2021/07/03 06:49:00;;;;;;;4.30;3.58;;;;;;;20.36;63.54;101340.84;5017213;28;20026;-75
2021/07/03 06:51:26;;;;;;;4.10;3.75;;;;;;;20.03;64.48;101340.63;5016365;28;20029;-75
2021/07/03 06:53:53;;;;;;;3.15;2.85;;;;;;;21.25;59.13;101346.25;5013775;28;20375;-75
2021/07/03 06:56:19;;;;;;;4.15;2.75;;;;;;;22.22;55.46;101342.13;5007247;28;20025;-75
2021/07/03 06:58:44;;;;;;;4.03;2.92;;;;;;;22.58;53.70;101347.22;5017157;28;20331;-75
2021/07/03 07:01:09;;;;;;;2.15;2.05;;;;;;;24.42;47.97;101336.22;5016258;28;20323;-75
2021/07/03 07:03:35;;;;;;;2.65;2.40;;;;;;;22.88;51.45;101345.56;4999867;28;20024;-74
2021/07/03 07:06:00;;;;;;;2.58;2.47;;;;;;;21.53;56.17;101349.31;5016996;28;20040;-74
2021/07/03 07:08:25;;;;;;;3.58;3.25;;;;;;;20.92;57.50;101344.34;5013158;28;20022;-75
2021/07/03 07:10:51;;;;;;;2.95;2.72;;;;;;;19.76;62.51;101348.84;5016258;28;20458;-74
2021/07/03 07:13:16;;;;;;;3.83;2.70;;;;;;;18.91;64.85;101349.81;5016650;28;20045;-74
2021/07/03 07:15:41;;;;;;;2.80;2.60;;;;;;;18.81;65.28;101351.06;5006357;28;20028;-74
2021/07/03 07:18:07;;;;;;;3.47;3.15;;;;;;;17.95;67.48;101350.78;5027949;28;20449;-74
2021/07/03 07:20:32;;;;;;;2.47;2.28;;;;;;;20.01;61.52;101340.66;5016664;28;20067;-74
2021/07/03 07:22:57;;;;;;;3.55;2.58;;;;;;;19.60;62.19;101346.00;5012560;28;20348;-73
2021/07/03 07:25:23;;;;;;;4.00;2.33;;;;;;;20.46;57.63;101340.41;5012298;28;20079;-73
2021/07/03 07:27:48;;;;;;;3.35;2.53;;;;;;;20.78;57.40;101346.84;5018439;28;20489;-73
2021/07/03 07:30:18;;;;;;;2.65;2.45;;;;;;;20.12;57.87;101348.13;5030063;28;20602;-73
2021/07/03 07:32:43;;;;;;;3.13;2.35;;;;;;;19.49;59.92;101342.97;5013972;28;20121;-73
2021/07/03 07:35:09;;;;;;;3.30;2.97;;;;;;;18.52;64.51;101351.28;5014537;28;20133;-73
2021/07/03 07:37:34;;;;;;;3.47;3.17;;;;;;;18.23;65.33;101355.91;5015598;28;20026;-74
2021/07/03 07:40:00;;;;;;;3.65;3.35;;;;;;;17.91;67.69;101357.06;5015948;28;20139;-73
2021/07/03 07:42:25;;;;;;;3.33;2.83;;;;;;;17.57;68.37;101360.91;5016154;28;20427;-73
2021/07/03 07:44:51;;;;;;;6.18;3.47;;;;;;;17.70;67.78;101362.22;5000200;28;20159;-73
2021/07/03 07:47:16;;;;;;;3.95;3.60;;;;;;;17.84;68.36;101347.66;5016778;28;20415;-73
2021/07/03 07:49:41;;;;;;;4.78;3.80;;;;;;;18.04;67.90;101355.75;5015529;28;20415;-73
2021/07/03 07:52:06;;;;;;;4.07;3.75;;;;;;;17.77;68.43;101356.72;5030704;28;20411;-73
2021/07/03 07:54:32;;;;;;;4.20;3.72;;;;;;;17.85;67.47;101355.53;5015605;28;20030;-74
2021/07/03 07:56:59;;;;;;;3.70;3.40;;;;;;;18.05;66.75;101354.84;5015202;28;20124;-74
2021/07/03 07:59:25;;;;;;;3.95;3.15;;;;;;;17.90;67.27;101357.97;5016209;28;20048;-73
2021/07/03 08:01:51;;;;;;;4.53;4.20;;;;;;;17.61;68.72;101351.13;5032095;28;20120;-73
2021/07/03 08:04:16;;;;;;;3.50;3.20;;;;;;;17.63;69.98;101360.72;5000225;28;20112;-73
2021/07/03 08:06:41;;;;;;;6.15;3.40;;;;;;;17.72;67.26;101354.22;5016332;28;20084;-74
2021/07/03 08:09:07;;;;;;;6.25;3.85;;;;;;;17.86;68.21;101351.09;5014845;28;20439;-74
2021/07/03 08:11:32;;;;;;;4.03;3.58;;;;;;;17.47;69.86;101352.47;5016199;28;20334;-73
2021/07/03 08:13:57;;;;;;;3.78;3.50;;;;;;;17.99;66.18;101351.56;5033780;28;20080;-74
2021/07/03 08:16:23;;;;;;;4.43;3.42;;;;;;;18.22;66.96;101353.34;4998429;28;20026;-74
2021/07/03 08:18:48;;;;;;;3.28;3.05;;;;;;;18.27;67.28;101355.78;4984221;28;20114;-74
2021/07/03 08:21:15;;;;;;;3.85;3.33;;;;;;;17.71;67.62;101353.38;4986385;28;20452;-73
2021/07/03 08:23:40;;;;;;;4.03;3.72;;;;;;;17.83;70.24;101351.19;5008775;28;20451;-73
2021/07/03 08:26:06;;;;;;;3.53;3.03;;;;;;;18.65;65.40;101356.09;5009147;28;20025;-73
2021/07/03 08:28:31;;;;;;;5.60;3.30;;;;;;;18.49;65.21;101339.97;5019913;28;20026;-73
2021/07/03 08:30:57;;;;;;;3.58;3.25;;;;;;;18.20;67.67;101342.81;5034181;28;20021;-73
2021/07/03 08:33:22;;;;;;;2.80;2.60;;;;;;;18.56;62.35;101344.09;5019735;28;20330;-73
2021/07/03 08:35:47;;;;;;;3.35;3.05;;;;;;;19.14;61.43;101338.25;5017452;28;20036;-73
2021/07/03 08:38:12;;;;;;;3.50;3.20;;;;;;;18.67;62.72;101347.16;5018531;28;20028;-73
2021/07/03 08:40:38;;;;;;;3.10;2.90;;;;;;;18.83;61.78;101342.13;5018947;28;20036;-73
2021/07/03 08:43:03;;;;;;;3.08;2.88;;;;;;;18.93;62.69;101340.00;5018293;28;20026;-73
2021/07/03 08:45:29;;;;;;;4.93;3.17;;;;;;;18.95;63.43;101338.16;5019557;28;20032;-73
2021/07/03 08:47:54;;;;;;;4.63;3.15;;;;;;;18.81;62.03;101340.47;5019465;28;20017;-73
2021/07/03 08:50:19;;;;;;;3.78;2.85;;;;;;;18.50;62.45;101331.09;5019275;28;20032;-73
2021/07/03 08:52:45;;;;;;;3.25;2.88;;;;;;;18.98;63.32;101331.84;5018349;28;20025;-73
2021/07/03 08:55:22;;;;;;;5.82;3.13;;;;;;;18.81;63.04;101332.53;5015863;28;20033;-74
2021/07/03 08:57:51;;;;;;;3.50;3.20;;;;;;;19.04;62.25;101332.47;5011834;28;20494;-74
2021/07/03 09:00:41;;;;;;;5.28;2.92;;;;;;;19.45;60.85;101338.72;5027427;28;20025;-74
2021/07/03 09:03:17;;;;;;;3.67;2.70;;;;;;;19.05;61.88;101328.91;5012743;28;20339;-76
2021/07/03 09:05:56;;;;;;;3.63;2.75;;;;;;;19.27;60.94;101335.94;5019274;28;20025;-76
2021/07/03 09:08:28;;;;;;;2.33;2.17;;;;;;;19.03;60.47;101332.53;5025918;28;20021;-76
2021/07/03 09:11:07;;;;;;;1.92;1.73;;;;;;;19.96;59.05;101320.59;5012719;28;20330;-77
2021/07/03 09:13:34;;;;;;;3.20;2.65;;;;;;;19.65;60.16;101321.97;5028861;28;20312;-77
2021/07/03 09:16:00;;;;;;;2.78;2.55;;;;;;;19.36;61.66;101317.00;5018807;28;20108;-75
2021/07/03 09:18:27;;;;;;;2.67;2.50;;;;;;;19.33;59.51;101313.63;5014822;28;20117;-76
2021/07/03 09:20:57;;;;;;;2.35;2.13;;;;;;;19.29;59.95;101315.53;5001971;28;20036;-76
2021/07/03 09:23:25;;;;;;;2.22;2.08;;;;;;;19.39;61.30;101316.88;5014724;28;20026;-76
2021/07/03 09:25:59;;;;;;;3.58;2.95;;;;;;;18.57;63.04;101316.72;5002702;28;20136;-74
2021/07/03 09:28:33;;;;;;;3.92;2.92;;;;;;;18.52;64.76;101314.25;5026837;28;20063;-77
2021/07/03 09:31:01;;;;;;;3.13;2.90;;;;;;;19.13;61.41;101319.75;5032282;28;20033;-74
2021/07/03 09:33:29;;;;;;;2.63;2.42;;;;;;;18.62;63.35;101314.72;5013132;28;20030;-74
2021/07/03 09:35:58;;;;;;;3.70;3.17;;;;;;;18.82;62.35;101311.28;5002408;28;20026;-75
2021/07/03 09:38:43;;;;;;;3.35;2.75;;;;;;;18.98;60.49;101316.84;5031522;28;20638;-74
2021/07/03 09:41:20;;;;;;;3.72;2.72;;;;;;;19.22;59.72;101314.97;4997838;28;20080;-75
2021/07/03 09:43:48;;;;;;;2.58;2.38;;;;;;;19.49;59.84;101306.72;5004962;28;20088;-76
2021/07/03 09:46:33;;;;;;;2.65;2.45;;;;;;;19.72;57.83;101302.22;5027222;28;20049;-74
2021/07/03 09:49:06;;;;;;;2.30;2.17;;;;;;;19.69;57.58;101303.19;5018071;28;20044;-74
2021/07/03 09:51:37;;;;;;;2.70;2.50;;;;;;;19.68;57.93;101300.63;5017428;28;20022;-74
2021/07/03 09:54:04;;;;;;;2.88;2.63;;;;;;;19.19;60.12;101300.97;5026890;28;20523;-74
2021/07/03 09:56:29;;;;;;;2.58;2.38;;;;;;;19.06;61.85;101304.16;4999392;28;20026;-74
2021/07/03 09:58:55;;;;;;;2.78;2.58;;;;;;;19.18;62.16;101312.50;5005470;28;20088;-74
2021/07/03 10:01:21;;;;;;;3.00;2.70;;;;;;;19.45;61.09;101309.59;5000892;28;20021;-74
2021/07/03 10:03:46;;;;;;;4.30;2.88;;;;;;;19.30;61.77;101303.16;5017595;28;20033;-74
2021/07/03 10:06:20;;;;;;;2.50;2.30;;;;;;;19.58;61.30;101298.38;5014319;28;20014;-74
2021/07/03 10:08:48;;;;;;;2.55;2.35;;;;;;;19.70;59.27;101296.97;5015073;28;20079;-74
2021/07/03 10:11:17;;;;;;;2.53;2.22;;;;;;;19.81;59.36;101306.25;5017053;28;20389;-74
2021/07/03 10:13:43;;;;;;;2.75;2.55;;;;;;;19.11;62.50;101303.09;5017588;28;20320;-74
2021/07/03 10:16:08;;;;;;;3.42;2.47;;;;;;;18.96;60.85;101301.94;5017614;28;20064;-74
2021/07/03 10:18:35;;;;;;;2.47;1.77;;;;;;;19.45;59.87;101304.28;5006558;28;20029;-74
2021/07/03 10:21:09;;;;;;;3.00;2.35;;;;;;;19.62;59.10;101301.75;5013401;28;20026;-74
2021/07/03 10:23:43;;;;;;;2.40;2.20;;;;;;;19.97;57.75;101296.66;5030929;28;20036;-74
2021/07/03 10:26:09;;;;;;;2.67;2.20;;;;;;;19.97;58.39;101301.13;5032929;28;20272;-74
2021/07/03 10:28:36;;;;;;;2.30;2.10;;;;;;;20.18;57.21;101293.94;5017524;28;20049;-74
2021/07/03 10:31:13;;;;;;;3.35;2.13;;;;;;;20.37;56.50;101294.81;5016819;28;20438;-75
2021/07/03 10:33:42;;;;;;;2.58;2.38;;;;;;;20.31;56.40;101292.44;5008991;28;20562;-74
2021/07/03 10:36:08;;;;;;;2.53;2.38;;;;;;;19.86;57.40;101299.81;5026109;28;20021;-74
2021/07/03 10:38:41;;;;;;;2.05;1.92;;;;;;;19.65;57.31;101290.16;4999928;28;20032;-74
2021/07/03 10:41:13;;;;;;;1.80;1.70;;;;;;;19.85;57.83;101292.81;4996304;28;20125;-74
2021/07/03 10:43:43;;;;;;;2.58;2.38;;;;;;;20.19;57.04;101287.72;5009357;28;20028;-74
2021/07/03 10:46:08;;;;;;;2.28;2.10;;;;;;;20.63;55.63;101284.72;5016262;28;20419;-74
2021/07/03 10:48:34;;;;;;;2.53;2.33;;;;;;;20.57;55.88;101285.00;5017157;28;20075;-74
2021/07/03 10:51:09;;;;;;;3.03;2.00;;;;;;;21.22;50.96;101274.69;5016269;28;20025;-75
2021/07/03 10:53:35;;;;;;;2.50;1.75;;;;;;;20.98;52.88;101268.84;5017075;28;20176;-73
2021/07/03 10:56:18;;;;;;;3.10;1.92;;;;;;;21.17;53.30;101276.72;5016722;28;20061;-73
2021/07/03 10:58:44;;;;;;;2.25;1.90;;;;;;;20.78;55.82;101277.81;5034189;28;20061;-73
2021/07/03 11:01:15;;;;;;;5.22;2.00;;;;;;;21.01;56.01;101274.00;5016186;28;20063;-73
2021/07/03 11:03:41;;;;;;;2.13;2.03;;;;;;;20.54;56.45;101274.56;5034219;28;20037;-73
2021/07/03 11:06:17;;;;;;;1.80;1.70;;;;;;;21.40;52.97;101275.53;5034054;28;20026;-73
2021/07/03 11:08:43;;;;;;;2.35;1.80;;;;;;;21.76;52.56;101269.22;5032912;28;20021;-73
2021/07/03 11:11:13;;;;;;;1.90;1.80;;;;;;;21.46;51.76;101274.38;4996547;28;20166;-73
2021/07/03 11:13:40;;;;;;;1.70;1.60;;;;;;;22.52;48.80;101266.84;4980705;28;20018;-73
2021/07/03 11:16:11;;;;;;;1.88;1.65;;;;;;;22.30;49.85;101265.38;4997029;28;20029;-73
2021/07/03 11:18:40;;;;;;;2.60;2.40;;;;;;;22.29;49.90;101277.84;4985922;28;20030;-73